createdAt,value
2018-02-20T00:00:15.855Z,981.2
2018-02-20T00:01:18.633Z,981.1
2018-02-20T00:02:21.447Z,981.1
2018-02-20T00:03:24.186Z,981.1
2018-02-20T00:04:27.200Z,981.1
2018-02-20T00:05:30.022Z,981.1
2018-02-20T00:06:32.741Z,981.1
2018-02-20T00:07:35.370Z,981.1
2018-02-20T00:08:38.157Z,981.2
2018-02-20T00:09:40.802Z,981.2
2018-02-20T00:10:43.457Z,981.2
2018-02-20T00:11:46.120Z,981.2
2018-02-20T00:12:48.878Z,981.2
2018-02-20T00:13:51.524Z,981.2
2018-02-20T00:14:54.230Z,981.2
2018-02-20T00:15:56.923Z,981.2
2018-02-20T00:16:59.898Z,981.2
2018-02-20T00:18:02.560Z,981.2
2018-02-20T00:19:05.324Z,981.2
2018-02-20T00:20:08.163Z,981.1
2018-02-20T00:21:10.791Z,981.1
2018-02-20T00:22:13.497Z,981.1
2018-02-20T00:23:16.327Z,981.1
2018-02-20T00:24:19.031Z,981.1
2018-02-20T00:25:21.791Z,981.1
2018-02-20T00:26:25.218Z,981
2018-02-20T00:27:27.935Z,981
2018-02-20T00:28:30.665Z,981
2018-02-20T00:29:33.572Z,981
2018-02-20T00:30:36.341Z,981
2018-02-20T00:31:39.080Z,981
2018-02-20T00:32:41.853Z,981
2018-02-20T00:33:44.832Z,981
2018-02-20T00:34:47.758Z,981
2018-02-20T00:35:50.538Z,980.8
2018-02-20T00:36:53.270Z,981
2018-02-20T00:37:56.118Z,981
2018-02-20T00:38:58.785Z,981
2018-02-20T00:40:01.582Z,981
2018-02-20T00:41:04.341Z,980.9
2018-02-20T00:42:07.177Z,981
2018-02-20T00:43:09.946Z,981
2018-02-20T00:44:12.760Z,981
2018-02-20T00:45:15.486Z,981
2018-02-20T00:46:18.212Z,981
2018-02-20T00:47:26.430Z,981
2018-02-20T00:48:29.138Z,981
2018-02-20T00:49:31.878Z,981
2018-02-20T00:50:34.728Z,981
2018-02-20T00:51:37.540Z,980.9
2018-02-20T00:52:40.601Z,981
2018-02-20T00:53:43.347Z,980.9
2018-02-20T00:54:46.385Z,980.9
2018-02-20T00:55:49.220Z,980.8
2018-02-20T00:56:52.672Z,980.6
2018-02-20T00:57:55.631Z,980.9
2018-02-20T00:58:58.372Z,980.9
2018-02-20T01:00:01.002Z,980.9
2018-02-20T01:01:03.611Z,981
2018-02-20T01:02:07.165Z,980.7
2018-02-20T01:03:10.090Z,981
2018-02-20T01:04:13.604Z,980.9
2018-02-20T01:05:16.541Z,980.9
2018-02-20T01:06:19.714Z,980.8
2018-02-20T01:07:22.976Z,981
2018-02-20T01:08:25.732Z,980.9
2018-02-20T01:09:28.565Z,980.9
2018-02-20T01:10:31.172Z,980.9
2018-02-20T01:11:33.845Z,980.9
2018-02-20T01:12:36.612Z,980.9
2018-02-20T01:13:39.326Z,980.9
2018-02-20T01:14:42.159Z,980.9
2018-02-20T01:15:44.946Z,980.8
2018-02-20T01:16:47.726Z,980.9
2018-02-20T01:17:50.368Z,980.8
2018-02-20T01:18:52.991Z,980.9
2018-02-20T01:19:56.597Z,980.8
2018-02-20T01:20:59.477Z,980.9
2018-02-20T01:22:02.171Z,980.9
2018-02-20T01:23:05.971Z,980.8
2018-02-20T01:24:08.961Z,980.8
2018-02-20T01:25:11.643Z,980.8
2018-02-20T01:26:14.276Z,980.8
2018-02-20T01:27:16.993Z,980.8
2018-02-20T01:28:19.587Z,980.9
2018-02-20T01:29:22.412Z,980.8
2018-02-20T01:30:25.054Z,980.8
2018-02-20T01:31:27.761Z,980.8
2018-02-20T01:32:30.548Z,980.8
2018-02-20T01:33:33.392Z,980.6
2018-02-20T01:34:36.139Z,980.8
2018-02-20T01:35:38.752Z,980.9
2018-02-20T01:36:41.430Z,980.7
2018-02-20T01:37:44.090Z,980.8
2018-02-20T01:38:46.846Z,980.9
2018-02-20T01:39:49.589Z,980.8
2018-02-20T01:40:52.206Z,980.9
2018-02-20T01:41:54.961Z,980.9
2018-02-20T01:42:57.753Z,980.9
2018-02-20T01:44:00.498Z,980.9
2018-02-20T01:45:03.292Z,980.9
2018-02-20T01:46:05.976Z,980.9
2018-02-20T01:47:09.132Z,980.9
2018-02-20T01:48:11.898Z,980.8
2018-02-20T01:49:14.601Z,980.7
2018-02-20T01:50:17.477Z,980.9
2018-02-20T01:51:20.280Z,980.9
2018-02-20T01:52:22.985Z,980.9
2018-02-20T01:53:25.694Z,980.8
2018-02-20T01:54:28.454Z,980.9
2018-02-20T01:55:31.337Z,980.9
2018-02-20T01:56:34.107Z,980.9
2018-02-20T01:57:36.891Z,980.9
2018-02-20T01:58:39.529Z,980.9
2018-02-20T01:59:42.190Z,980.8
2018-02-20T02:00:45.096Z,980.8
2018-02-20T02:01:47.799Z,980.9
2018-02-20T02:02:50.545Z,980.8
2018-02-20T02:03:53.199Z,980.9
2018-02-20T02:04:55.923Z,980.8
2018-02-20T02:05:58.772Z,980.8
2018-02-20T02:07:05.308Z,980.5
2018-02-20T02:08:08.043Z,980.9
2018-02-20T02:09:10.675Z,980.8
2018-02-20T02:10:13.270Z,980.8
2018-02-20T02:11:15.893Z,980.7
2018-02-20T02:12:18.509Z,980.8
2018-02-20T02:13:25.554Z,980.9
2018-02-20T02:14:28.136Z,980.8
2018-02-20T02:15:30.681Z,980.8
2018-02-20T02:16:33.332Z,980.8
2018-02-20T02:17:36.555Z,980.8
2018-02-20T02:18:39.162Z,980.8
2018-02-20T02:19:41.749Z,980.9
2018-02-20T02:20:44.444Z,980.8
2018-02-20T02:21:47.740Z,980.9
2018-02-20T02:22:50.433Z,980.8
2018-02-20T02:23:53.057Z,980.8
2018-02-20T02:24:55.712Z,980.8
2018-02-20T02:25:58.316Z,980.8
2018-02-20T02:27:04.392Z,980.8
2018-02-20T02:28:10.232Z,980.8
2018-02-20T02:29:12.876Z,980.8
2018-02-20T02:30:15.528Z,980.9
2018-02-20T02:31:18.245Z,980.8
2018-02-20T02:32:20.863Z,980.8
2018-02-20T02:33:23.442Z,980.9
2018-02-20T02:34:26.054Z,980.9
2018-02-20T02:35:28.762Z,980.8
2018-02-20T02:36:31.316Z,980.8
2018-02-20T02:37:33.961Z,980.8
2018-02-20T02:38:36.580Z,980.8
2018-02-20T02:39:39.303Z,980.8
2018-02-20T02:40:41.889Z,980.7
2018-02-20T02:41:44.539Z,980.8
2018-02-20T02:42:47.298Z,980.8
2018-02-20T02:43:50.047Z,980.8
2018-02-20T02:44:52.605Z,980.8
2018-02-20T02:45:55.157Z,980.9
2018-02-20T02:46:57.867Z,980.8
2018-02-20T02:48:00.538Z,980.8
2018-02-20T02:49:03.213Z,980.7
2018-02-20T02:50:05.882Z,980.7
2018-02-20T02:51:08.639Z,980.7
2018-02-20T02:52:11.319Z,980.6
2018-02-20T02:53:14.095Z,980.8
2018-02-20T02:54:17.369Z,980.8
2018-02-20T02:55:19.948Z,980.8
2018-02-20T02:56:22.570Z,980.7
2018-02-20T02:57:25.277Z,980.7
2018-02-20T02:58:28.105Z,980.8
2018-02-20T02:59:30.753Z,980.7
2018-02-20T03:00:33.401Z,980.8
2018-02-20T03:01:35.946Z,980.8
2018-02-20T03:02:38.641Z,980.7
2018-02-20T03:03:41.225Z,980.7
2018-02-20T03:04:43.908Z,980.8
2018-02-20T03:05:46.526Z,980.7
2018-02-20T03:06:50.025Z,980.8
2018-02-20T03:07:52.649Z,980.8
2018-02-20T03:08:55.245Z,980.7
2018-02-20T03:09:57.904Z,980.8
2018-02-20T03:11:00.645Z,980.8
2018-02-20T03:12:03.562Z,980.8
2018-02-20T03:13:13.005Z,980.5
2018-02-20T03:14:15.735Z,980.8
2018-02-20T03:15:18.493Z,980.6
2018-02-20T03:16:21.063Z,980.8
2018-02-20T03:17:24.380Z,980.8
2018-02-20T03:18:27.118Z,980.9
2018-02-20T03:19:29.745Z,980.8
2018-02-20T03:20:32.339Z,980.9
2018-02-20T03:21:34.931Z,980.8
2018-02-20T03:22:37.592Z,980.8
2018-02-20T03:23:40.245Z,980.8
2018-02-20T03:24:42.865Z,980.8
2018-02-20T03:25:45.607Z,980.8
2018-02-20T03:26:48.443Z,980.8
2018-02-20T03:27:51.452Z,980.8
2018-02-20T03:28:54.054Z,980.8
2018-02-20T03:29:56.712Z,980.7
2018-02-20T03:30:59.737Z,980.8
2018-02-20T03:32:06.067Z,980.8
2018-02-20T03:33:08.819Z,980.8
2018-02-20T03:34:11.464Z,980.8
2018-02-20T03:35:14.252Z,980.8
2018-02-20T03:36:16.854Z,980.7
2018-02-20T03:37:19.552Z,980.6
2018-02-20T03:38:22.191Z,980.8
2018-02-20T03:39:24.904Z,980.8
2018-02-20T03:40:27.575Z,980.7
2018-02-20T03:41:30.215Z,980.8
2018-02-20T03:42:32.835Z,980.7
2018-02-20T03:43:35.954Z,980.7
2018-02-20T03:44:38.609Z,980.8
2018-02-20T03:45:41.254Z,980.8
2018-02-20T03:46:43.851Z,980.8
2018-02-20T03:47:46.490Z,980.8
2018-02-20T03:48:49.157Z,980.8
2018-02-20T03:49:51.758Z,980.8
2018-02-20T03:50:54.394Z,980.8
2018-02-20T03:51:57.199Z,980.8
2018-02-20T03:52:59.801Z,980.8
2018-02-20T03:54:02.438Z,980.8
2018-02-20T03:55:05.047Z,980.8
2018-02-20T03:56:07.823Z,980.7
2018-02-20T03:57:10.470Z,980.7
2018-02-20T03:58:13.646Z,980.8
2018-02-20T03:59:16.158Z,980.8
2018-02-20T04:00:18.806Z,980.8
2018-02-20T04:01:25.014Z,980.8
2018-02-20T04:02:28.396Z,980.8
2018-02-20T04:03:31.081Z,980.8
2018-02-20T04:04:33.715Z,980.8
2018-02-20T04:05:36.292Z,980.8
2018-02-20T04:06:39.014Z,980.9
2018-02-20T04:07:45.902Z,980.8
2018-02-20T04:08:48.533Z,980.8
2018-02-20T04:09:51.122Z,980.8
2018-02-20T04:10:53.619Z,980.9
2018-02-20T04:11:56.188Z,980.8
2018-02-20T04:12:58.948Z,980.8
2018-02-20T04:14:01.551Z,980.8
2018-02-20T04:15:04.193Z,980.9
2018-02-20T04:16:06.744Z,980.9
2018-02-20T04:17:09.307Z,980.6
2018-02-20T04:18:11.918Z,980.9
2018-02-20T04:19:14.436Z,980.8
2018-02-20T04:20:16.992Z,980.9
2018-02-20T04:21:25.800Z,980.5
2018-02-20T04:22:28.437Z,980.9
2018-02-20T04:23:31.192Z,980.8
2018-02-20T04:24:33.793Z,980.7
2018-02-20T04:25:36.412Z,980.9
2018-02-20T04:26:39.069Z,980.9
2018-02-20T04:27:41.735Z,980.8
2018-02-20T04:28:44.729Z,980.9
2018-02-20T04:29:47.413Z,980.8
2018-02-20T04:30:50.082Z,980.8
2018-02-20T04:31:52.709Z,980.8
2018-02-20T04:32:55.297Z,980.8
2018-02-20T04:33:57.895Z,980.8
2018-02-20T04:35:00.468Z,980.8
2018-02-20T04:36:03.125Z,980.8
2018-02-20T04:37:05.719Z,980.8
2018-02-20T04:38:08.400Z,980.8
2018-02-20T04:39:11.065Z,980.5
2018-02-20T04:40:13.781Z,980.8
2018-02-20T04:41:16.454Z,980.8
2018-02-20T04:42:19.172Z,980.8
2018-02-20T04:43:24.436Z,980.8
2018-02-20T04:44:31.597Z,980.6
2018-02-20T04:45:34.224Z,980.8
2018-02-20T04:46:36.909Z,980.8
2018-02-20T04:47:39.531Z,980.8
2018-02-20T04:48:42.102Z,980.8
2018-02-20T04:49:44.896Z,980.8
2018-02-20T04:50:47.530Z,980.9
2018-02-20T04:51:50.152Z,980.8
2018-02-20T04:52:52.726Z,980.9
2018-02-20T04:53:55.293Z,980.5
2018-02-20T04:54:57.892Z,980.8
2018-02-20T04:56:00.493Z,980.8
2018-02-20T04:57:03.165Z,980.7
2018-02-20T04:58:06.016Z,980.8
2018-02-20T04:59:09.459Z,980.8
2018-02-20T05:00:12.073Z,980.9
2018-02-20T05:01:14.677Z,980.8
2018-02-20T05:02:17.658Z,980.9
2018-02-20T05:03:20.189Z,980.9
2018-02-20T05:04:22.930Z,980.8
2018-02-20T05:05:25.497Z,980.8
2018-02-20T05:06:28.289Z,980.9
2018-02-20T05:07:30.908Z,980.8
2018-02-20T05:08:34.689Z,980.8
2018-02-20T05:09:37.382Z,980.9
2018-02-20T05:10:40.064Z,980.9
2018-02-20T05:11:42.680Z,980.8
2018-02-20T05:12:45.326Z,980.9
2018-02-20T05:13:47.946Z,980.9
2018-02-20T05:14:50.541Z,980.9
2018-02-20T05:15:53.089Z,981
2018-02-20T05:16:55.637Z,980.9
2018-02-20T05:17:58.292Z,980.9
2018-02-20T05:19:06.051Z,981
2018-02-20T05:20:08.854Z,981
2018-02-20T05:21:11.452Z,981
2018-02-20T05:22:14.576Z,981
2018-02-20T05:23:17.205Z,980.9
2018-02-20T05:24:19.835Z,980.9
2018-02-20T05:25:22.482Z,981
2018-02-20T05:26:25.076Z,981
2018-02-20T05:27:27.781Z,980.9
2018-02-20T05:28:30.347Z,981
2018-02-20T05:29:32.950Z,981
2018-02-20T05:30:35.605Z,981
2018-02-20T05:31:38.309Z,981
2018-02-20T05:32:40.848Z,981
2018-02-20T05:33:43.631Z,981
2018-02-20T05:34:46.189Z,980.9
2018-02-20T05:35:50.453Z,981
2018-02-20T05:36:53.110Z,980.9
2018-02-20T05:37:55.776Z,981
2018-02-20T05:38:59.210Z,981
2018-02-20T05:40:01.951Z,981
2018-02-20T05:41:04.548Z,981
2018-02-20T05:42:07.171Z,981
2018-02-20T05:43:09.850Z,981
2018-02-20T05:44:12.774Z,981
2018-02-20T05:45:15.405Z,981
2018-02-20T05:46:26.363Z,981
2018-02-20T05:47:29.181Z,981
2018-02-20T05:48:31.834Z,981.1
2018-02-20T05:49:34.628Z,981
2018-02-20T05:50:37.279Z,981
2018-02-20T05:51:42.101Z,981
2018-02-20T05:52:45.137Z,981
2018-02-20T05:53:47.999Z,981.1
2018-02-20T05:54:50.872Z,981
2018-02-20T05:55:53.633Z,981.1
2018-02-20T05:56:56.591Z,981
2018-02-20T05:57:59.500Z,981
2018-02-20T05:59:02.435Z,980.9
2018-02-20T06:00:05.176Z,981
2018-02-20T06:01:07.984Z,981.1
2018-02-20T06:02:11.292Z,981.1
2018-02-20T06:03:14.094Z,981
2018-02-20T06:04:16.820Z,980.8
2018-02-20T06:05:19.583Z,981.1
2018-02-20T06:06:22.242Z,981.1
2018-02-20T06:07:24.972Z,981.1
2018-02-20T06:08:27.742Z,981.1
2018-02-20T06:09:30.500Z,981.1
2018-02-20T06:10:33.165Z,981.1
2018-02-20T06:11:35.697Z,981.2
2018-02-20T06:12:38.638Z,981
2018-02-20T06:13:44.885Z,981.1
2018-02-20T06:14:47.679Z,981.1
2018-02-20T06:15:50.612Z,981.1
2018-02-20T06:16:53.340Z,981.1
2018-02-20T06:17:56.135Z,981.1
2018-02-20T06:18:59.096Z,981.1
2018-02-20T06:20:02.054Z,981.1
2018-02-20T06:21:04.873Z,981.2
2018-02-20T06:22:07.964Z,981.2
2018-02-20T06:23:11.064Z,981.1
2018-02-20T06:24:19.625Z,981.1
2018-02-20T06:25:22.621Z,981.2
2018-02-20T06:26:25.518Z,981.1
2018-02-20T06:27:28.347Z,981.1
2018-02-20T06:28:31.228Z,981.1
2018-02-20T06:29:40.769Z,981.1
2018-02-20T06:30:43.464Z,981.2
2018-02-20T06:31:46.365Z,981.2
2018-02-20T06:32:49.277Z,981.2
2018-02-20T06:33:52.078Z,981.2
2018-02-20T06:35:01.117Z,981.1
2018-02-20T06:36:03.832Z,981.2
2018-02-20T06:37:07.073Z,981.2
2018-02-20T06:38:10.098Z,981.3
2018-02-20T06:39:12.750Z,981.1
2018-02-20T06:40:15.463Z,981.1
2018-02-20T06:41:23.264Z,980.9
2018-02-20T06:42:26.030Z,981.1
2018-02-20T06:43:28.672Z,981.1
2018-02-20T06:44:31.374Z,981
2018-02-20T06:45:34.012Z,981.1
2018-02-20T06:46:36.623Z,981
2018-02-20T06:47:39.363Z,981
2018-02-20T06:48:41.971Z,981
2018-02-20T06:49:44.589Z,981
2018-02-20T06:50:47.323Z,981
2018-02-20T06:51:50.160Z,981
2018-02-20T06:52:52.743Z,981
2018-02-20T06:53:56.412Z,981.1
2018-02-20T06:55:04.045Z,981.1
2018-02-20T06:56:07.122Z,981.1
2018-02-20T06:57:09.887Z,981.1
2018-02-20T06:58:17.033Z,980.9
2018-02-20T06:59:19.848Z,981
2018-02-20T07:00:22.523Z,981
2018-02-20T07:01:25.177Z,981.1
2018-02-20T07:02:28.211Z,981.1
2018-02-20T07:03:30.954Z,981
2018-02-20T07:04:33.569Z,981
2018-02-20T07:05:36.173Z,981
2018-02-20T07:06:38.865Z,981
2018-02-20T07:07:41.543Z,981
2018-02-20T07:08:44.202Z,981
2018-02-20T07:09:46.865Z,981
2018-02-20T07:10:50.303Z,981
2018-02-20T07:11:52.996Z,981
2018-02-20T07:12:55.654Z,980.8
2018-02-20T07:13:58.369Z,981
2018-02-20T07:15:01.078Z,981
2018-02-20T07:16:03.852Z,981
2018-02-20T07:17:06.480Z,981
2018-02-20T07:18:09.336Z,981
2018-02-20T07:19:12.796Z,981
2018-02-20T07:20:15.673Z,981
2018-02-20T07:21:26.468Z,980.7
2018-02-20T07:22:29.555Z,981
2018-02-20T07:23:32.557Z,981
2018-02-20T07:24:35.222Z,981
2018-02-20T07:25:38.286Z,980.9
2018-02-20T07:26:41.921Z,980.8
2018-02-20T07:27:44.466Z,981
2018-02-20T07:28:49.677Z,981
2018-02-20T07:29:52.391Z,981
2018-02-20T07:30:55.094Z,981
2018-02-20T07:31:58.311Z,981
2018-02-20T07:33:00.908Z,981
2018-02-20T07:34:03.955Z,981
2018-02-20T07:35:06.774Z,981
2018-02-20T07:36:09.771Z,981
2018-02-20T07:37:13.052Z,981
2018-02-20T07:38:15.704Z,981.1
2018-02-20T07:39:18.453Z,981.1
2018-02-20T07:40:21.166Z,980.9
2018-02-20T07:41:24.022Z,981.1
2018-02-20T07:42:26.890Z,981.1
2018-02-20T07:43:29.674Z,981
2018-02-20T07:44:32.330Z,981
2018-02-20T07:45:35.047Z,981
2018-02-20T07:46:37.769Z,980.8
2018-02-20T07:47:40.663Z,980.9
2018-02-20T07:48:43.369Z,981
2018-02-20T07:49:46.313Z,981
2018-02-20T07:50:49.316Z,980.8
2018-02-20T07:51:51.956Z,981
2018-02-20T07:52:54.775Z,981.1
2018-02-20T07:53:58.056Z,980.9
2018-02-20T07:55:00.837Z,981
2018-02-20T07:56:09.155Z,980.9
2018-02-20T07:57:11.778Z,981
2018-02-20T07:58:14.669Z,981.1
2018-02-20T07:59:17.352Z,981.1
2018-02-20T08:00:20.218Z,981.1
2018-02-20T08:01:22.890Z,981.1
2018-02-20T08:02:25.753Z,981.1
2018-02-20T08:03:28.475Z,981
2018-02-20T08:04:31.362Z,981
2018-02-20T08:05:34.134Z,981
2018-02-20T08:06:36.838Z,981
2018-02-20T08:07:39.772Z,981
2018-02-20T08:08:42.584Z,980.9
2018-02-20T08:09:45.254Z,980.9
2018-02-20T08:10:47.911Z,980.8
2018-02-20T08:11:50.787Z,980.9
2018-02-20T08:12:59.204Z,980.9
2018-02-20T08:14:02.194Z,980.9
2018-02-20T08:15:05.103Z,980.9
2018-02-20T08:16:08.093Z,980.9
2018-02-20T08:17:11.092Z,981
2018-02-20T08:18:13.746Z,980.9
2018-02-20T08:19:16.383Z,980.9
2018-02-20T08:20:19.496Z,981
2018-02-20T08:21:22.267Z,981
2018-02-20T08:22:24.991Z,981
2018-02-20T08:23:27.649Z,981
2018-02-20T08:24:30.389Z,980.9
2018-02-20T08:25:33.079Z,980.9
2018-02-20T08:26:40.553Z,980.9
2018-02-20T08:27:43.447Z,980.9
2018-02-20T08:28:46.215Z,980.9
2018-02-20T08:29:49.296Z,981
2018-02-20T08:30:52.241Z,980.9
2018-02-20T08:31:55.165Z,980.9
2018-02-20T08:33:00.547Z,980.9
2018-02-20T08:34:04.072Z,980.9
2018-02-20T08:35:06.844Z,980.9
2018-02-20T08:36:09.683Z,980.9
2018-02-20T08:37:12.638Z,980.9
2018-02-20T08:38:15.438Z,980.9
2018-02-20T08:39:19.073Z,980.9
2018-02-20T08:40:21.909Z,981
2018-02-20T08:41:24.819Z,981
2018-02-20T08:42:27.736Z,980.8
2018-02-20T08:43:30.542Z,980.9
2018-02-20T08:44:33.354Z,981
2018-02-20T08:45:37.025Z,981
2018-02-20T08:46:39.732Z,981
2018-02-20T08:47:42.424Z,980.9
2018-02-20T08:48:45.110Z,981
2018-02-20T08:49:47.805Z,980.9
2018-02-20T08:50:50.520Z,980.9
2018-02-20T08:51:53.188Z,980.9
2018-02-20T08:52:56.808Z,980.8
2018-02-20T08:53:59.657Z,980.9
2018-02-20T08:55:02.582Z,981
2018-02-20T08:56:05.235Z,980.9
2018-02-20T08:57:08.039Z,980.9
2018-02-20T08:58:16.448Z,980.8
2018-02-20T08:59:19.340Z,980.9
2018-02-20T09:00:22.268Z,980.9
2018-02-20T09:01:26.613Z,980.8
2018-02-20T09:02:29.592Z,980.9
2018-02-20T09:03:32.346Z,980.9
2018-02-20T09:04:35.275Z,980.7
2018-02-20T09:05:37.922Z,980.8
2018-02-20T09:06:40.728Z,980.9
2018-02-20T09:07:44.685Z,980.9
2018-02-20T09:08:47.514Z,980.9
2018-02-20T09:09:50.399Z,980.8
2018-02-20T09:10:54.797Z,980.9
2018-02-20T09:11:59.163Z,980.9
2018-02-20T09:13:01.942Z,980.9
2018-02-20T09:14:04.915Z,980.9
2018-02-20T09:15:07.680Z,980.9
2018-02-20T09:16:10.696Z,980.9
2018-02-20T09:17:13.669Z,980.9
2018-02-20T09:18:16.396Z,980.9
2018-02-20T09:19:19.216Z,980.9
2018-02-20T09:20:22.424Z,980.9
2018-02-20T09:21:25.321Z,980.9
2018-02-20T09:22:28.118Z,980.9
2018-02-20T09:23:30.948Z,980.9
2018-02-20T09:24:33.640Z,980.9
2018-02-20T09:25:36.929Z,980.9
2018-02-20T09:26:48.027Z,980.9
2018-02-20T09:27:50.888Z,980.9
2018-02-20T09:28:53.670Z,980.9
2018-02-20T09:29:56.273Z,980.9
2018-02-20T09:30:59.169Z,980.9
2018-02-20T09:32:02.184Z,980.9
2018-02-20T09:33:04.922Z,980.9
2018-02-20T09:34:08.149Z,981
2018-02-20T09:35:12.210Z,980.7
2018-02-20T09:36:15.086Z,980.8
2018-02-20T09:37:17.851Z,980.9
2018-02-20T09:38:20.961Z,981
2018-02-20T09:39:23.879Z,980.7
2018-02-20T09:40:26.692Z,980.9
2018-02-20T09:41:32.166Z,980.9
2018-02-20T09:42:38.376Z,980.9
2018-02-20T09:43:47.919Z,980.9
2018-02-20T09:44:51.246Z,980.9
2018-02-20T09:45:57.244Z,980.8
2018-02-20T09:47:00.341Z,980.8
2018-02-20T09:48:03.080Z,980.8
2018-02-20T09:49:05.846Z,980.8
2018-02-20T09:50:08.517Z,980.8
2018-02-20T09:51:11.174Z,980.8
2018-02-20T09:52:14.096Z,980.5
2018-02-20T09:53:16.928Z,980.6
2018-02-20T09:54:19.654Z,980.7
2018-02-20T09:55:22.338Z,980.8
2018-02-20T09:56:25.024Z,980.8
2018-02-20T09:57:28.113Z,980.8
2018-02-20T09:58:31.074Z,980.8
2018-02-20T09:59:34.052Z,980.8
2018-02-20T10:00:36.892Z,980.8
2018-02-20T10:01:39.748Z,980.8
2018-02-20T10:02:42.562Z,980.8
2018-02-20T10:03:45.262Z,980.8
2018-02-20T10:04:48.142Z,980.8
2018-02-20T10:05:50.968Z,980.8
2018-02-20T10:06:54.002Z,980.8
2018-02-20T10:07:56.658Z,980.8
2018-02-20T10:08:59.444Z,980.8
2018-02-20T10:10:02.336Z,980.8
2018-02-20T10:11:05.186Z,980.9
2018-02-20T10:12:08.010Z,980.9
2018-02-20T10:13:10.802Z,980.8
2018-02-20T10:14:13.675Z,980.9
2018-02-20T10:15:17.241Z,980.8
2018-02-20T10:16:20.556Z,980.8
2018-02-20T10:17:28.836Z,980.8
2018-02-20T10:18:31.636Z,980.8
2018-02-20T10:19:35.742Z,980.8
2018-02-20T10:20:38.631Z,980.8
2018-02-20T10:21:41.553Z,980.8
2018-02-20T10:22:44.244Z,980.8
2018-02-20T10:23:47.650Z,980.8
2018-02-20T10:24:53.114Z,980.7
2018-02-20T10:26:00.065Z,980.8
2018-02-20T10:27:03.267Z,980.7
2018-02-20T10:28:10.350Z,980.8
2018-02-20T10:29:14.870Z,980.8
2018-02-20T10:30:17.904Z,980.9
2018-02-20T10:31:22.802Z,980.8
2018-02-20T10:32:25.662Z,980.9
2018-02-20T10:33:28.382Z,980.8
2018-02-20T10:34:31.732Z,980.8
2018-02-20T10:35:34.743Z,980.8
2018-02-20T10:36:37.775Z,980.7
2018-02-20T10:37:41.022Z,980.8
2018-02-20T10:38:43.796Z,980.8
2018-02-20T10:39:46.500Z,980.9
2018-02-20T10:40:49.503Z,980.9
2018-02-20T10:41:52.334Z,980.8
2018-02-20T10:42:55.422Z,980.9
2018-02-20T10:43:58.027Z,980.8
2018-02-20T10:45:00.820Z,980.9
2018-02-20T10:46:03.672Z,980.9
2018-02-20T10:47:06.872Z,980.9
2018-02-20T10:48:09.818Z,980.8
2018-02-20T10:49:13.521Z,980.8
2018-02-20T10:50:16.592Z,980.8
2018-02-20T10:51:19.685Z,980.8
2018-02-20T10:52:23.179Z,980.8
2018-02-20T10:53:26.733Z,980.7
2018-02-20T10:54:29.571Z,980.8
2018-02-20T10:55:32.270Z,980.9
2018-02-20T10:56:35.102Z,980.9
2018-02-20T10:57:37.817Z,980.8
2018-02-20T10:58:40.622Z,980.9
2018-02-20T10:59:43.412Z,980.9
2018-02-20T11:00:46.293Z,980.9
2018-02-20T11:01:50.769Z,980.9
2018-02-20T11:02:55.325Z,980.9
2018-02-20T11:03:58.106Z,981
2018-02-20T11:05:01.131Z,980.9
2018-02-20T11:06:03.994Z,980.9
2018-02-20T11:07:06.831Z,980.8
2018-02-20T11:08:09.929Z,980.9
2018-02-20T11:09:12.757Z,980.9
2018-02-20T11:10:15.718Z,981
2018-02-20T11:11:18.484Z,980.9
2018-02-20T11:12:21.566Z,980.9
2018-02-20T11:13:25.933Z,980.9
2018-02-20T11:14:28.594Z,980.9
2018-02-20T11:15:31.652Z,980.9
2018-02-20T11:16:34.434Z,980.9
2018-02-20T11:17:37.286Z,980.9
2018-02-20T11:18:40.242Z,980.9
2018-02-20T11:19:42.936Z,980.9
2018-02-20T11:20:45.728Z,981
2018-02-20T11:21:48.558Z,980.9
2018-02-20T11:22:51.449Z,980.8
2018-02-20T11:23:54.711Z,980.9
2018-02-20T11:24:57.600Z,980.9
2018-02-20T11:26:00.291Z,980.9
2018-02-20T11:27:03.207Z,980.8
2018-02-20T11:28:09.080Z,980.9
2018-02-20T11:29:12.633Z,980.7
2018-02-20T11:30:15.397Z,980.9
2018-02-20T11:31:18.171Z,980.9
2018-02-20T11:32:21.350Z,980.9
2018-02-20T11:33:24.111Z,980.9
2018-02-20T11:34:27.044Z,980.9
2018-02-20T11:35:29.892Z,980.9
2018-02-20T11:36:33.712Z,980.9
2018-02-20T11:37:36.644Z,980.8
2018-02-20T11:38:39.573Z,980.8
2018-02-20T11:39:42.362Z,980.8
2018-02-20T11:40:45.102Z,980.8
2018-02-20T11:41:47.873Z,980.6
2018-02-20T11:42:51.538Z,980.8
2018-02-20T11:43:54.327Z,980.7
2018-02-20T11:44:57.442Z,980.7
2018-02-20T11:46:00.109Z,980.7
2018-02-20T11:47:04.025Z,980.8
2018-02-20T11:48:07.287Z,980.7
2018-02-20T11:49:10.956Z,980.6
2018-02-20T11:50:13.868Z,980.7
2018-02-20T11:51:17.518Z,980.7
2018-02-20T11:52:20.313Z,980.7
2018-02-20T11:53:23.174Z,980.7
2018-02-20T11:54:26.196Z,980.8
2018-02-20T11:55:29.526Z,980.7
2018-02-20T11:56:32.450Z,980.8
2018-02-20T11:57:35.197Z,980.8
2018-02-20T11:58:38.097Z,980.8
2018-02-20T11:59:41.032Z,980.8
2018-02-20T12:00:43.896Z,980.8
2018-02-20T12:01:48.918Z,980.6
2018-02-20T12:02:51.762Z,980.8
2018-02-20T12:03:54.613Z,980.8
2018-02-20T12:04:57.436Z,980.8
2018-02-20T12:06:00.639Z,980.8
2018-02-20T12:07:06.731Z,980.7
2018-02-20T12:08:09.794Z,980.8
2018-02-20T12:09:13.183Z,980.8
2018-02-20T12:10:16.688Z,980.8
2018-02-20T12:11:19.750Z,980.8
2018-02-20T12:12:22.872Z,980.7
2018-02-20T12:13:25.728Z,980.8
2018-02-20T12:14:35.790Z,980.8
2018-02-20T12:15:38.949Z,980.8
2018-02-20T12:16:42.696Z,980.8
2018-02-20T12:17:45.444Z,980.7
2018-02-20T12:18:48.090Z,980.8
2018-02-20T12:19:51.610Z,980.8
2018-02-20T12:20:54.474Z,980.8
2018-02-20T12:21:57.316Z,980.6
2018-02-20T12:23:00.349Z,980.8
2018-02-20T12:24:03.283Z,980.8
2018-02-20T12:25:06.378Z,980.8
2018-02-20T12:26:09.888Z,980.8
2018-02-20T12:27:13.107Z,980.8
2018-02-20T12:28:16.057Z,980.6
2018-02-20T12:29:19.525Z,980.7
2018-02-20T12:30:22.363Z,980.8
2018-02-20T12:31:25.095Z,980.8
2018-02-20T12:32:27.932Z,980.7
2018-02-20T12:33:31.308Z,980.8
2018-02-20T12:34:34.189Z,980.8
2018-02-20T12:35:36.872Z,980.8
2018-02-20T12:36:39.460Z,980.8
2018-02-20T12:37:42.190Z,980.7
2018-02-20T12:38:44.992Z,980.7
2018-02-20T12:39:48.060Z,980.7
2018-02-20T12:40:51.014Z,980.7
2018-02-20T12:41:53.810Z,980.5
2018-02-20T12:42:56.770Z,980.7
2018-02-20T12:43:59.622Z,980.7
2018-02-20T12:45:02.539Z,980.7
2018-02-20T12:46:05.994Z,980.6
2018-02-20T12:47:21.770Z,980.6
2018-02-20T12:48:24.853Z,980.6
2018-02-20T12:49:36.893Z,980.6
2018-02-20T12:50:39.584Z,980.6
2018-02-20T12:51:42.341Z,980.6
2018-02-20T12:52:45.268Z,980.6
2018-02-20T12:53:50.365Z,980.7
2018-02-20T12:54:52.965Z,980.6
2018-02-20T12:55:55.737Z,980.6
2018-02-20T12:56:58.884Z,980.6
2018-02-20T12:58:01.865Z,980.6
2018-02-20T13:01:30.898Z,980.6
2018-02-20T13:02:34.645Z,980.5
2018-02-20T13:03:37.425Z,980.7
2018-02-20T13:04:40.416Z,980.6
2018-02-20T13:05:43.256Z,980.6
2018-02-20T13:06:47.882Z,980.7
2018-02-20T13:07:51.705Z,980.7
2018-02-20T13:08:54.397Z,980.5
2018-02-20T13:09:57.453Z,980.7
2018-02-20T13:11:00.292Z,980.7
2018-02-20T13:12:05.736Z,980.7
2018-02-20T13:13:09.061Z,980.7
2018-02-20T13:14:12.424Z,980.5
2018-02-20T13:15:16.245Z,980.7
2018-02-20T13:16:19.170Z,980.7
2018-02-20T13:17:23.600Z,980.7
2018-02-20T13:18:29.461Z,980.7
2018-02-20T13:19:32.779Z,980.7
2018-02-20T13:20:36.605Z,980.6
2018-02-20T13:21:39.279Z,980.6
2018-02-20T13:22:42.259Z,980.7
2018-02-20T13:23:45.173Z,980.6
2018-02-20T13:24:47.999Z,980.6
2018-02-20T13:25:50.840Z,980.7
2018-02-20T13:26:53.703Z,980.6
2018-02-20T13:27:56.422Z,980.7
2018-02-20T13:28:59.121Z,980.7
2018-02-20T13:30:01.860Z,980.6
2018-02-20T13:31:08.573Z,980.7
2018-02-20T13:32:12.493Z,980.7
2018-02-20T13:33:15.437Z,980.7
2018-02-20T13:34:18.132Z,980.6
2018-02-20T13:35:22.107Z,980.7
2018-02-20T13:36:24.882Z,980.7
2018-02-20T13:37:27.478Z,980.7
2018-02-20T13:38:30.210Z,980.7
2018-02-20T13:39:32.979Z,980.7
2018-02-20T13:40:35.622Z,980.7
2018-02-20T13:41:38.713Z,980.7
2018-02-20T13:42:43.361Z,980.5
2018-02-20T13:43:46.462Z,980.6
2018-02-20T13:44:49.271Z,980.7